sensor_id;sensor_type;location;lat;lon;timestamp;P1;durP1;ratioP1;P2;durP2;ratioP2
79229;SDS011;68663;49.122;17.544;2024-02-26T00:00:28;6.68;;;5.30;;
79229;SDS011;68663;49.122;17.544;2024-02-26T00:02:55;6.18;;;4.65;;
79229;SDS011;68663;49.122;17.544;2024-02-26T00:05:20;6.53;;;4.95;;
79229;SDS011;68663;49.122;17.544;2024-02-26T00:07:46;5.75;;;4.63;;
79229;SDS011;68663;49.122;17.544;2024-02-26T00:10:12;6.13;;;4.38;;
79229;SDS011;68663;49.122;17.544;2024-02-26T00:12:38;5.75;;;4.43;;
79229;SDS011;68663;49.122;17.544;2024-02-26T00:15:04;5.85;;;4.60;;
79229;SDS011;68663;49.122;17.544;2024-02-26T00:17:31;5.65;;;4.72;;
79229;SDS011;68663;49.122;17.544;2024-02-26T00:19:56;6.20;;;4.33;;
79229;SDS011;68663;49.122;17.544;2024-02-26T00:22:21;6.60;;;4.70;;
79229;SDS011;68663;49.122;17.544;2024-02-26T00:24:47;6.95;;;4.60;;
79229;SDS011;68663;49.122;17.544;2024-02-26T00:27:13;6.00;;;4.38;;
79229;SDS011;68663;49.122;17.544;2024-02-26T00:29:38;5.93;;;4.45;;
79229;SDS011;68663;49.122;17.544;2024-02-26T00:32:03;6.37;;;4.00;;
79229;SDS011;68663;49.122;17.544;2024-02-26T00:34:29;5.88;;;4.63;;
79229;SDS011;68663;49.122;17.544;2024-02-26T00:36:54;5.63;;;4.40;;
79229;SDS011;68663;49.122;17.544;2024-02-26T00:39:20;6.20;;;4.32;;
79229;SDS011;68663;49.122;17.544;2024-02-26T00:41:45;5.67;;;4.37;;
79229;SDS011;68663;49.122;17.544;2024-02-26T00:44:11;4.82;;;3.95;;
79229;SDS011;68663;49.122;17.544;2024-02-26T00:46:36;5.68;;;4.43;;
79229;SDS011;68663;49.122;17.544;2024-02-26T00:49:02;5.22;;;4.03;;
79229;SDS011;68663;49.122;17.544;2024-02-26T00:51:27;4.93;;;3.85;;
79229;SDS011;68663;49.122;17.544;2024-02-26T00:53:53;4.93;;;4.22;;
79229;SDS011;68663;49.122;17.544;2024-02-26T00:56:19;5.55;;;4.68;;
79229;SDS011;68663;49.122;17.544;2024-02-26T00:58:44;5.10;;;4.55;;
79229;SDS011;68663;49.122;17.544;2024-02-26T01:01:10;5.47;;;4.38;;
79229;SDS011;68663;49.122;17.544;2024-02-26T01:03:35;5.18;;;4.28;;
79229;SDS011;68663;49.122;17.544;2024-02-26T01:06:01;7.30;;;4.30;;
79229;SDS011;68663;49.122;17.544;2024-02-26T01:08:26;5.00;;;4.17;;
79229;SDS011;68663;49.122;17.544;2024-02-26T01:10:51;6.00;;;4.53;;
79229;SDS011;68663;49.122;17.544;2024-02-26T01:13:17;5.17;;;4.03;;
79229;SDS011;68663;49.122;17.544;2024-02-26T01:15:42;5.47;;;4.30;;
79229;SDS011;68663;49.122;17.544;2024-02-26T01:18:09;4.40;;;4.00;;
79229;SDS011;68663;49.122;17.544;2024-02-26T01:20:34;4.47;;;4.00;;
79229;SDS011;68663;49.122;17.544;2024-02-26T01:22:59;6.70;;;4.57;;
79229;SDS011;68663;49.122;17.544;2024-02-26T01:25:25;5.10;;;3.93;;
79229;SDS011;68663;49.122;17.544;2024-02-26T01:27:50;6.43;;;4.53;;
79229;SDS011;68663;49.122;17.544;2024-02-26T01:30:15;5.55;;;4.07;;
79229;SDS011;68663;49.122;17.544;2024-02-26T01:32:42;4.45;;;3.75;;
79229;SDS011;68663;49.122;17.544;2024-02-26T01:35:07;5.57;;;4.20;;
79229;SDS011;68663;49.122;17.544;2024-02-26T01:37:35;5.72;;;4.22;;
79229;SDS011;68663;49.122;17.544;2024-02-26T01:40:01;5.93;;;4.10;;
79229;SDS011;68663;49.122;17.544;2024-02-26T01:42:29;4.75;;;4.10;;
79229;SDS011;68663;49.122;17.544;2024-02-26T01:44:55;4.22;;;3.58;;
79229;SDS011;68663;49.122;17.544;2024-02-26T01:47:21;5.28;;;4.03;;
79229;SDS011;68663;49.122;17.544;2024-02-26T01:49:47;5.47;;;4.38;;
79229;SDS011;68663;49.122;17.544;2024-02-26T01:52:12;4.93;;;3.85;;
79229;SDS011;68663;49.122;17.544;2024-02-26T01:54:38;4.55;;;4.13;;
79229;SDS011;68663;49.122;17.544;2024-02-26T01:57:05;4.88;;;3.60;;
79229;SDS011;68663;49.122;17.544;2024-02-26T01:59:32;5.55;;;3.80;;
79229;SDS011;68663;49.122;17.544;2024-02-26T02:02:00;5.47;;;4.20;;
79229;SDS011;68663;49.122;17.544;2024-02-26T02:04:28;5.50;;;4.10;;
79229;SDS011;68663;49.122;17.544;2024-02-26T02:06:54;5.38;;;3.88;;
79229;SDS011;68663;49.122;17.544;2024-02-26T02:09:22;5.78;;;4.60;;
79229;SDS011;68663;49.122;17.544;2024-02-26T02:11:48;5.18;;;3.95;;
79229;SDS011;68663;49.122;17.544;2024-02-26T02:14:14;4.65;;;4.00;;
79229;SDS011;68663;49.122;17.544;2024-02-26T02:16:39;5.45;;;4.35;;
79229;SDS011;68663;49.122;17.544;2024-02-26T02:19:05;4.20;;;3.10;;
79229;SDS011;68663;49.122;17.544;2024-02-26T02:21:30;4.82;;;3.78;;
79229;SDS011;68663;49.122;17.544;2024-02-26T02:23:56;4.53;;;3.83;;
79229;SDS011;68663;49.122;17.544;2024-02-26T02:26:21;4.13;;;3.73;;
79229;SDS011;68663;49.122;17.544;2024-02-26T02:28:46;5.30;;;3.78;;
79229;SDS011;68663;49.122;17.544;2024-02-26T02:31:13;4.63;;;3.92;;
79229;SDS011;68663;49.122;17.544;2024-02-26T02:33:40;4.22;;;3.67;;
79229;SDS011;68663;49.122;17.544;2024-02-26T02:36:06;5.20;;;3.90;;
79229;SDS011;68663;49.122;17.544;2024-02-26T02:38:34;5.10;;;3.58;;
79229;SDS011;68663;49.122;17.544;2024-02-26T02:41:00;4.70;;;3.88;;
79229;SDS011;68663;49.122;17.544;2024-02-26T02:43:26;4.60;;;3.75;;
79229;SDS011;68663;49.122;17.544;2024-02-26T02:45:51;3.97;;;3.40;;
79229;SDS011;68663;49.122;17.544;2024-02-26T02:48:16;4.53;;;3.73;;
79229;SDS011;68663;49.122;17.544;2024-02-26T02:50:42;5.13;;;3.77;;
79229;SDS011;68663;49.122;17.544;2024-02-26T02:53:07;3.87;;;3.40;;
79229;SDS011;68663;49.122;17.544;2024-02-26T02:55:32;7.83;;;4.37;;
79229;SDS011;68663;49.122;17.544;2024-02-26T02:57:58;4.57;;;3.57;;
79229;SDS011;68663;49.122;17.544;2024-02-26T03:00:23;4.33;;;3.77;;
79229;SDS011;68663;49.122;17.544;2024-02-26T03:02:49;4.53;;;3.60;;
79229;SDS011;68663;49.122;17.544;2024-02-26T03:05:14;4.85;;;3.63;;
79229;SDS011;68663;49.122;17.544;2024-02-26T03:07:40;4.90;;;3.20;;
79229;SDS011;68663;49.122;17.544;2024-02-26T03:10:05;4.53;;;3.60;;
79229;SDS011;68663;49.122;17.544;2024-02-26T03:12:31;4.50;;;3.45;;
79229;SDS011;68663;49.122;17.544;2024-02-26T03:14:57;4.45;;;3.38;;
79229;SDS011;68663;49.122;17.544;2024-02-26T03:17:22;4.10;;;3.50;;
79229;SDS011;68663;49.122;17.544;2024-02-26T03:19:49;4.07;;;3.38;;
79229;SDS011;68663;49.122;17.544;2024-02-26T03:22:18;4.82;;;3.88;;
79229;SDS011;68663;49.122;17.544;2024-02-26T03:24:44;3.95;;;3.47;;
79229;SDS011;68663;49.122;17.544;2024-02-26T03:27:09;4.07;;;3.40;;
79229;SDS011;68663;49.122;17.544;2024-02-26T03:29:35;5.10;;;3.70;;
79229;SDS011;68663;49.122;17.544;2024-02-26T03:32:00;5.07;;;3.75;;
79229;SDS011;68663;49.122;17.544;2024-02-26T03:34:26;3.88;;;3.35;;
79229;SDS011;68663;49.122;17.544;2024-02-26T03:36:52;4.97;;;3.67;;
79229;SDS011;68663;49.122;17.544;2024-02-26T03:39:17;3.88;;;3.47;;
79229;SDS011;68663;49.122;17.544;2024-02-26T03:41:43;4.93;;;3.97;;
79229;SDS011;68663;49.122;17.544;2024-02-26T03:44:08;3.80;;;3.38;;
79229;SDS011;68663;49.122;17.544;2024-02-26T03:46:33;4.72;;;3.50;;
79229;SDS011;68663;49.122;17.544;2024-02-26T03:48:59;5.18;;;3.78;;
79229;SDS011;68663;49.122;17.544;2024-02-26T03:51:24;3.88;;;3.45;;
79229;SDS011;68663;49.122;17.544;2024-02-26T03:53:50;3.80;;;3.30;;
79229;SDS011;68663;49.122;17.544;2024-02-26T03:56:15;4.30;;;3.42;;
79229;SDS011;68663;49.122;17.544;2024-02-26T03:58:41;3.53;;;3.13;;
79229;SDS011;68663;49.122;17.544;2024-02-26T04:01:07;4.72;;;3.25;;
79229;SDS011;68663;49.122;17.544;2024-02-26T04:03:33;4.28;;;3.25;;
79229;SDS011;68663;49.122;17.544;2024-02-26T04:05:59;4.35;;;3.60;;
79229;SDS011;68663;49.122;17.544;2024-02-26T04:08:25;4.78;;;3.60;;
79229;SDS011;68663;49.122;17.544;2024-02-26T04:10:50;4.40;;;3.78;;
79229;SDS011;68663;49.122;17.544;2024-02-26T04:13:16;4.00;;;3.45;;
79229;SDS011;68663;49.122;17.544;2024-02-26T04:15:43;4.90;;;3.65;;
79229;SDS011;68663;49.122;17.544;2024-02-26T04:18:08;3.67;;;3.05;;
79229;SDS011;68663;49.122;17.544;2024-02-26T04:20:33;3.85;;;3.25;;
79229;SDS011;68663;49.122;17.544;2024-02-26T04:22:59;3.47;;;3.13;;
79229;SDS011;68663;49.122;17.544;2024-02-26T04:25:24;4.30;;;3.07;;
79229;SDS011;68663;49.122;17.544;2024-02-26T04:27:50;4.45;;;3.35;;
79229;SDS011;68663;49.122;17.544;2024-02-26T04:30:15;3.43;;;3.03;;
79229;SDS011;68663;49.122;17.544;2024-02-26T04:32:42;4.63;;;3.28;;
79229;SDS011;68663;49.122;17.544;2024-02-26T04:35:07;3.30;;;2.90;;
79229;SDS011;68663;49.122;17.544;2024-02-26T04:37:33;3.65;;;3.10;;
79229;SDS011;68663;49.122;17.544;2024-02-26T04:39:59;3.67;;;3.03;;
79229;SDS011;68663;49.122;17.544;2024-02-26T04:42:25;3.70;;;3.30;;
79229;SDS011;68663;49.122;17.544;2024-02-26T04:44:50;3.95;;;3.25;;
79229;SDS011;68663;49.122;17.544;2024-02-26T04:47:16;4.00;;;3.15;;
79229;SDS011;68663;49.122;17.544;2024-02-26T04:49:41;5.32;;;3.40;;
79229;SDS011;68663;49.122;17.544;2024-02-26T04:52:06;4.07;;;3.50;;
79229;SDS011;68663;49.122;17.544;2024-02-26T04:54:32;4.40;;;3.10;;
79229;SDS011;68663;49.122;17.544;2024-02-26T04:56:57;5.07;;;3.45;;
79229;SDS011;68663;49.122;17.544;2024-02-26T04:59:23;6.20;;;3.70;;
79229;SDS011;68663;49.122;17.544;2024-02-26T05:01:48;4.85;;;3.33;;
79229;SDS011;68663;49.122;17.544;2024-02-26T05:04:13;4.68;;;3.40;;
79229;SDS011;68663;49.122;17.544;2024-02-26T05:06:39;8.63;;;3.55;;
79229;SDS011;68663;49.122;17.544;2024-02-26T05:09:05;19.65;;;6.35;;
79229;SDS011;68663;49.122;17.544;2024-02-26T05:11:30;49.28;;;12.52;;
79229;SDS011;68663;49.122;17.544;2024-02-26T05:13:56;54.75;;;16.38;;
79229;SDS011;68663;49.122;17.544;2024-02-26T05:16:22;65.22;;;17.92;;
79229;SDS011;68663;49.122;17.544;2024-02-26T05:18:49;56.38;;;16.20;;
79229;SDS011;68663;49.122;17.544;2024-02-26T05:21:15;50.65;;;16.25;;
79229;SDS011;68663;49.122;17.544;2024-02-26T05:23:40;49.30;;;16.70;;
79229;SDS011;68663;49.122;17.544;2024-02-26T05:26:08;55.88;;;18.02;;
79229;SDS011;68663;49.122;17.544;2024-02-26T05:28:34;50.40;;;16.52;;
79229;SDS011;68663;49.122;17.544;2024-02-26T05:30:59;52.85;;;16.20;;
79229;SDS011;68663;49.122;17.544;2024-02-26T05:33:25;51.13;;;15.10;;
79229;SDS011;68663;49.122;17.544;2024-02-26T05:35:50;47.87;;;13.80;;
79229;SDS011;68663;49.122;17.544;2024-02-26T05:38:16;42.60;;;14.52;;
79229;SDS011;68663;49.122;17.544;2024-02-26T05:40:41;39.50;;;14.37;;
79229;SDS011;68663;49.122;17.544;2024-02-26T05:43:06;40.80;;;12.97;;
79229;SDS011;68663;49.122;17.544;2024-02-26T05:45:32;33.50;;;11.57;;
79229;SDS011;68663;49.122;17.544;2024-02-26T05:47:58;27.83;;;11.88;;
79229;SDS011;68663;49.122;17.544;2024-02-26T05:50:23;32.45;;;12.30;;
79229;SDS011;68663;49.122;17.544;2024-02-26T05:52:49;28.08;;;11.50;;
79229;SDS011;68663;49.122;17.544;2024-02-26T05:55:14;27.90;;;10.60;;
79229;SDS011;68663;49.122;17.544;2024-02-26T05:57:39;28.40;;;10.52;;
79229;SDS011;68663;49.122;17.544;2024-02-26T06:00:06;24.65;;;10.80;;
79229;SDS011;68663;49.122;17.544;2024-02-26T06:02:31;26.08;;;9.85;;
79229;SDS011;68663;49.122;17.544;2024-02-26T06:04:57;25.73;;;10.70;;
79229;SDS011;68663;49.122;17.544;2024-02-26T06:07:23;22.33;;;9.40;;
79229;SDS011;68663;49.122;17.544;2024-02-26T06:09:48;25.85;;;9.80;;
79229;SDS011;68663;49.122;17.544;2024-02-26T06:12:14;25.90;;;9.23;;
79229;SDS011;68663;49.122;17.544;2024-02-26T06:14:39;25.48;;;10.00;;
79229;SDS011;68663;49.122;17.544;2024-02-26T06:17:06;23.20;;;9.02;;
79229;SDS011;68663;49.122;17.544;2024-02-26T06:19:32;22.15;;;9.27;;
79229;SDS011;68663;49.122;17.544;2024-02-26T06:21:57;22.00;;;9.02;;
79229;SDS011;68663;49.122;17.544;2024-02-26T06:24:23;21.93;;;9.23;;
79229;SDS011;68663;49.122;17.544;2024-02-26T06:26:48;21.02;;;9.15;;
79229;SDS011;68663;49.122;17.544;2024-02-26T06:29:14;24.60;;;9.23;;
79229;SDS011;68663;49.122;17.544;2024-02-26T06:31:39;21.15;;;8.95;;
79229;SDS011;68663;49.122;17.544;2024-02-26T06:34:05;19.23;;;8.48;;
79229;SDS011;68663;49.122;17.544;2024-02-26T06:36:30;21.30;;;8.95;;
79229;SDS011;68663;49.122;17.544;2024-02-26T06:38:57;20.95;;;9.38;;
79229;SDS011;68663;49.122;17.544;2024-02-26T06:41:22;20.63;;;8.57;;
79229;SDS011;68663;49.122;17.544;2024-02-26T06:43:53;18.23;;;8.98;;
79229;SDS011;68663;49.122;17.544;2024-02-26T06:46:18;15.30;;;8.18;;
79229;SDS011;68663;49.122;17.544;2024-02-26T06:48:44;15.90;;;7.93;;
79229;SDS011;68663;49.122;17.544;2024-02-26T06:51:09;20.52;;;8.73;;
79229;SDS011;68663;49.122;17.544;2024-02-26T06:53:35;19.20;;;9.13;;
79229;SDS011;68663;49.122;17.544;2024-02-26T06:56:00;15.33;;;7.40;;
79229;SDS011;68663;49.122;17.544;2024-02-26T06:58:25;15.60;;;7.82;;
79229;SDS011;68663;49.122;17.544;2024-02-26T07:00:51;17.23;;;8.38;;
79229;SDS011;68663;49.122;17.544;2024-02-26T07:03:16;16.60;;;7.57;;
79229;SDS011;68663;49.122;17.544;2024-02-26T07:05:42;14.73;;;7.63;;
79229;SDS011;68663;49.122;17.544;2024-02-26T07:08:09;19.23;;;8.43;;
79229;SDS011;68663;49.122;17.544;2024-02-26T07:10:34;18.87;;;8.20;;
79229;SDS011;68663;49.122;17.544;2024-02-26T07:13:00;17.95;;;8.07;;
79229;SDS011;68663;49.122;17.544;2024-02-26T07:15:25;15.63;;;7.57;;
79229;SDS011;68663;49.122;17.544;2024-02-26T07:17:50;16.40;;;8.23;;
79229;SDS011;68663;49.122;17.544;2024-02-26T07:20:16;15.97;;;7.30;;
79229;SDS011;68663;49.122;17.544;2024-02-26T07:22:43;15.23;;;7.00;;
79229;SDS011;68663;49.122;17.544;2024-02-26T07:25:08;16.10;;;7.80;;
79229;SDS011;68663;49.122;17.544;2024-02-26T07:27:38;14.57;;;7.15;;
79229;SDS011;68663;49.122;17.544;2024-02-26T07:30:03;13.13;;;6.75;;
79229;SDS011;68663;49.122;17.544;2024-02-26T07:32:29;12.10;;;7.00;;
79229;SDS011;68663;49.122;17.544;2024-02-26T07:34:55;14.00;;;6.93;;
79229;SDS011;68663;49.122;17.544;2024-02-26T07:37:20;13.85;;;7.75;;
79229;SDS011;68663;49.122;17.544;2024-02-26T07:39:45;11.57;;;6.23;;
79229;SDS011;68663;49.122;17.544;2024-02-26T07:42:11;12.40;;;7.20;;
79229;SDS011;68663;49.122;17.544;2024-02-26T07:44:36;13.73;;;6.95;;
79229;SDS011;68663;49.122;17.544;2024-02-26T07:47:02;16.53;;;7.77;;
79229;SDS011;68663;49.122;17.544;2024-02-26T07:49:28;13.43;;;6.80;;
79229;SDS011;68663;49.122;17.544;2024-02-26T07:51:53;14.75;;;6.97;;
79229;SDS011;68663;49.122;17.544;2024-02-26T07:54:19;14.05;;;6.78;;
79229;SDS011;68663;49.122;17.544;2024-02-26T07:56:45;14.32;;;6.75;;
79229;SDS011;68663;49.122;17.544;2024-02-26T07:59:10;11.15;;;6.18;;
79229;SDS011;68663;49.122;17.544;2024-02-26T08:01:35;11.60;;;6.27;;
79229;SDS011;68663;49.122;17.544;2024-02-26T08:04:04;9.52;;;5.32;;
79229;SDS011;68663;49.122;17.544;2024-02-26T08:06:29;14.73;;;6.57;;
79229;SDS011;68663;49.122;17.544;2024-02-26T08:08:55;12.07;;;5.95;;
79229;SDS011;68663;49.122;17.544;2024-02-26T08:11:20;11.40;;;6.20;;
79229;SDS011;68663;49.122;17.544;2024-02-26T08:13:45;11.57;;;6.05;;
79229;SDS011;68663;49.122;17.544;2024-02-26T08:16:11;11.40;;;6.05;;
79229;SDS011;68663;49.122;17.544;2024-02-26T08:18:37;12.20;;;6.15;;
79229;SDS011;68663;49.122;17.544;2024-02-26T08:21:03;9.83;;;5.80;;
79229;SDS011;68663;49.122;17.544;2024-02-26T08:23:28;11.55;;;6.20;;
79229;SDS011;68663;49.122;17.544;2024-02-26T08:25:54;9.90;;;5.60;;
79229;SDS011;68663;49.122;17.544;2024-02-26T08:28:19;10.57;;;5.57;;
79229;SDS011;68663;49.122;17.544;2024-02-26T08:30:45;8.30;;;4.70;;
79229;SDS011;68663;49.122;17.544;2024-02-26T08:33:10;8.73;;;5.10;;
79229;SDS011;68663;49.122;17.544;2024-02-26T08:35:36;7.78;;;4.38;;
79229;SDS011;68663;49.122;17.544;2024-02-26T08:38:02;6.03;;;3.70;;
79229;SDS011;68663;49.122;17.544;2024-02-26T08:40:27;6.22;;;4.22;;
79229;SDS011;68663;49.122;17.544;2024-02-26T08:42:53;6.90;;;4.50;;
79229;SDS011;68663;49.122;17.544;2024-02-26T08:45:19;6.15;;;3.45;;
79229;SDS011;68663;49.122;17.544;2024-02-26T08:47:44;4.80;;;3.67;;
79229;SDS011;68663;49.122;17.544;2024-02-26T08:50:10;6.88;;;3.35;;
79229;SDS011;68663;49.122;17.544;2024-02-26T08:52:37;5.93;;;3.78;;
79229;SDS011;68663;49.122;17.544;2024-02-26T08:55:03;6.28;;;3.53;;
79229;SDS011;68663;49.122;17.544;2024-02-26T08:57:29;3.42;;;3.13;;
79229;SDS011;68663;49.122;17.544;2024-02-26T08:59:57;6.50;;;3.38;;
79229;SDS011;68663;49.122;17.544;2024-02-26T09:02:23;5.07;;;3.35;;
79229;SDS011;68663;49.122;17.544;2024-02-26T09:04:48;3.73;;;2.97;;
79229;SDS011;68663;49.122;17.544;2024-02-26T09:07:16;5.60;;;3.10;;
79229;SDS011;68663;49.122;17.544;2024-02-26T09:09:41;3.45;;;3.13;;
79229;SDS011;68663;49.122;17.544;2024-02-26T09:12:07;4.10;;;3.03;;
79229;SDS011;68663;49.122;17.544;2024-02-26T09:14:32;3.50;;;3.00;;
79229;SDS011;68663;49.122;17.544;2024-02-26T09:16:57;4.73;;;3.17;;
79229;SDS011;68663;49.122;17.544;2024-02-26T09:19:23;5.23;;;3.43;;
79229;SDS011;68663;49.122;17.544;2024-02-26T09:21:50;4.38;;;3.15;;
79229;SDS011;68663;49.122;17.544;2024-02-26T09:24:16;5.45;;;3.30;;
79229;SDS011;68663;49.122;17.544;2024-02-26T09:26:41;3.90;;;2.97;;
79229;SDS011;68663;49.122;17.544;2024-02-26T09:29:07;5.10;;;3.27;;
79229;SDS011;68663;49.122;17.544;2024-02-26T09:31:33;4.05;;;3.22;;
79229;SDS011;68663;49.122;17.544;2024-02-26T09:33:59;4.47;;;3.58;;
79229;SDS011;68663;49.122;17.544;2024-02-26T09:36:24;4.47;;;2.80;;
79229;SDS011;68663;49.122;17.544;2024-02-26T09:38:50;19.23;;;4.50;;
79229;SDS011;68663;49.122;17.544;2024-02-26T09:41:15;13.97;;;5.03;;
79229;SDS011;68663;49.122;17.544;2024-02-26T09:43:44;10.35;;;4.35;;
79229;SDS011;68663;49.122;17.544;2024-02-26T09:46:11;9.88;;;3.97;;
79229;SDS011;68663;49.122;17.544;2024-02-26T09:48:37;9.07;;;4.22;;
79229;SDS011;68663;49.122;17.544;2024-02-26T09:51:03;6.30;;;3.72;;
79229;SDS011;68663;49.122;17.544;2024-02-26T09:53:29;9.85;;;3.80;;
79229;SDS011;68663;49.122;17.544;2024-02-26T09:55:57;9.50;;;3.55;;
79229;SDS011;68663;49.122;17.544;2024-02-26T09:58:23;6.18;;;3.83;;
79229;SDS011;68663;49.122;17.544;2024-02-26T10:00:51;7.65;;;3.80;;
79229;SDS011;68663;49.122;17.544;2024-02-26T10:03:25;7.63;;;3.88;;
79229;SDS011;68663;49.122;17.544;2024-02-26T10:05:55;5.57;;;3.83;;
79229;SDS011;68663;49.122;17.544;2024-02-26T10:08:22;5.43;;;3.25;;
79229;SDS011;68663;49.122;17.544;2024-02-26T10:10:49;8.82;;;3.90;;
79229;SDS011;68663;49.122;17.544;2024-02-26T10:13:15;9.13;;;3.20;;
79229;SDS011;68663;49.122;17.544;2024-02-26T10:15:40;5.82;;;3.45;;
79229;SDS011;68663;49.122;17.544;2024-02-26T10:18:06;6.03;;;3.65;;
79229;SDS011;68663;49.122;17.544;2024-02-26T10:20:32;6.50;;;3.75;;
79229;SDS011;68663;49.122;17.544;2024-02-26T10:22:58;4.85;;;3.47;;
79229;SDS011;68663;49.122;17.544;2024-02-26T10:25:24;6.15;;;3.40;;
79229;SDS011;68663;49.122;17.544;2024-02-26T10:27:49;4.97;;;3.20;;
79229;SDS011;68663;49.122;17.544;2024-02-26T10:32:46;7.05;;;3.33;;
79229;SDS011;68663;49.122;17.544;2024-02-26T10:35:12;6.60;;;3.55;;
79229;SDS011;68663;49.122;17.544;2024-02-26T10:37:42;5.40;;;3.35;;
79229;SDS011;68663;49.122;17.544;2024-02-26T10:40:11;5.60;;;3.33;;
79229;SDS011;68663;49.122;17.544;2024-02-26T10:42:37;5.10;;;3.55;;
79229;SDS011;68663;49.122;17.544;2024-02-26T10:45:04;4.82;;;3.30;;
79229;SDS011;68663;49.122;17.544;2024-02-26T10:47:37;4.28;;;3.13;;
79229;SDS011;68663;49.122;17.544;2024-02-26T10:50:03;6.93;;;3.83;;
79229;SDS011;68663;49.122;17.544;2024-02-26T10:52:34;3.00;;;2.55;;
79229;SDS011;68663;49.122;17.544;2024-02-26T10:55:01;4.53;;;3.13;;
79229;SDS011;68663;49.122;17.544;2024-02-26T10:57:29;4.55;;;3.00;;
79229;SDS011;68663;49.122;17.544;2024-02-26T10:59:58;4.57;;;3.50;;
79229;SDS011;68663;49.122;17.544;2024-02-26T11:02:25;5.07;;;2.72;;
79229;SDS011;68663;49.122;17.544;2024-02-26T11:04:51;3.33;;;2.95;;
79229;SDS011;68663;49.122;17.544;2024-02-26T11:07:16;6.65;;;3.38;;
79229;SDS011;68663;49.122;17.544;2024-02-26T11:12:27;4.28;;;3.20;;
79229;SDS011;68663;49.122;17.544;2024-02-26T11:14:55;4.90;;;2.75;;
79229;SDS011;68663;49.122;17.544;2024-02-26T11:17:23;3.40;;;2.70;;
79229;SDS011;68663;49.122;17.544;2024-02-26T11:19:51;5.50;;;3.17;;
79229;SDS011;68663;49.122;17.544;2024-02-26T11:22:20;3.92;;;2.83;;
79229;SDS011;68663;49.122;17.544;2024-02-26T11:24:47;3.83;;;2.85;;
79229;SDS011;68663;49.122;17.544;2024-02-26T11:27:14;4.05;;;2.63;;
79229;SDS011;68663;49.122;17.544;2024-02-26T11:29:44;4.18;;;3.03;;
79229;SDS011;68663;49.122;17.544;2024-02-26T11:32:13;4.05;;;3.00;;
79229;SDS011;68663;49.122;17.544;2024-02-26T11:34:39;4.35;;;2.80;;
79229;SDS011;68663;49.122;17.544;2024-02-26T11:37:11;4.32;;;2.95;;
79229;SDS011;68663;49.122;17.544;2024-02-26T11:39:37;5.03;;;3.00;;
79229;SDS011;68663;49.122;17.544;2024-02-26T11:42:08;4.10;;;2.50;;
79229;SDS011;68663;49.122;17.544;2024-02-26T11:44:34;4.18;;;2.88;;
79229;SDS011;68663;49.122;17.544;2024-02-26T11:47:13;3.53;;;2.70;;
79229;SDS011;68663;49.122;17.544;2024-02-26T11:49:42;3.85;;;2.70;;
79229;SDS011;68663;49.122;17.544;2024-02-26T11:52:08;5.20;;;3.00;;
79229;SDS011;68663;49.122;17.544;2024-02-26T11:54:50;5.03;;;2.60;;
79229;SDS011;68663;49.122;17.544;2024-02-26T12:05:23;5.60;;;3.22;;
79229;SDS011;68663;49.122;17.544;2024-02-26T12:12:52;3.65;;;2.60;;
79229;SDS011;68663;49.122;17.544;2024-02-26T12:15:37;4.43;;;2.90;;
79229;SDS011;68663;49.122;17.544;2024-02-26T12:18:04;4.93;;;3.47;;
79229;SDS011;68663;49.122;17.544;2024-02-26T12:20:31;4.85;;;3.20;;
79229;SDS011;68663;49.122;17.544;2024-02-26T12:22:57;4.65;;;3.22;;
79229;SDS011;68663;49.122;17.544;2024-02-26T12:25:26;4.30;;;3.20;;
79229;SDS011;68663;49.122;17.544;2024-02-26T12:27:54;4.70;;;2.97;;
79229;SDS011;68663;49.122;17.544;2024-02-26T12:30:20;5.63;;;2.80;;
79229;SDS011;68663;49.122;17.544;2024-02-26T12:32:47;3.78;;;2.97;;
79229;SDS011;68663;49.122;17.544;2024-02-26T12:35:14;4.07;;;3.10;;
79229;SDS011;68663;49.122;17.544;2024-02-26T12:37:41;4.15;;;2.83;;
79229;SDS011;68663;49.122;17.544;2024-02-26T12:40:07;4.75;;;3.15;;
79229;SDS011;68663;49.122;17.544;2024-02-26T12:42:34;3.97;;;3.05;;
79229;SDS011;68663;49.122;17.544;2024-02-26T12:45:04;3.92;;;2.97;;
79229;SDS011;68663;49.122;17.544;2024-02-26T12:47:43;6.15;;;3.00;;
79229;SDS011;68663;49.122;17.544;2024-02-26T12:50:14;8.27;;;3.17;;
79229;SDS011;68663;49.122;17.544;2024-02-26T12:52:44;6.82;;;3.22;;
79229;SDS011;68663;49.122;17.544;2024-02-26T12:55:18;6.07;;;2.80;;
79229;SDS011;68663;49.122;17.544;2024-02-26T12:57:45;6.85;;;3.33;;
79229;SDS011;68663;49.122;17.544;2024-02-26T13:00:12;4.65;;;2.60;;
79229;SDS011;68663;49.122;17.544;2024-02-26T13:05:05;5.40;;;2.90;;
79229;SDS011;68663;49.122;17.544;2024-02-26T13:07:33;4.00;;;2.85;;
79229;SDS011;68663;49.122;17.544;2024-02-26T13:09:59;4.30;;;2.90;;
79229;SDS011;68663;49.122;17.544;2024-02-26T13:12:25;3.80;;;2.58;;
79229;SDS011;68663;49.122;17.544;2024-02-26T13:15:03;5.00;;;2.85;;
79229;SDS011;68663;49.122;17.544;2024-02-26T13:17:32;3.92;;;2.90;;
79229;SDS011;68663;49.122;17.544;2024-02-26T13:19:58;3.17;;;2.45;;
79229;SDS011;68663;49.122;17.544;2024-02-26T13:22:23;3.35;;;2.58;;
79229;SDS011;68663;49.122;17.544;2024-02-26T13:24:55;4.68;;;2.70;;
79229;SDS011;68663;49.122;17.544;2024-02-26T13:27:24;4.28;;;2.85;;
79229;SDS011;68663;49.122;17.544;2024-02-26T13:30:05;3.40;;;2.35;;
79229;SDS011;68663;49.122;17.544;2024-02-26T13:32:35;4.30;;;3.00;;
79229;SDS011;68663;49.122;17.544;2024-02-26T13:35:08;3.22;;;2.42;;
79229;SDS011;68663;49.122;17.544;2024-02-26T13:37:35;4.07;;;2.50;;
79229;SDS011;68663;49.122;17.544;2024-02-26T13:40:08;4.43;;;2.88;;
79229;SDS011;68663;49.122;17.544;2024-02-26T13:42:38;3.45;;;2.65;;
79229;SDS011;68663;49.122;17.544;2024-02-26T13:45:04;4.35;;;2.80;;
79229;SDS011;68663;49.122;17.544;2024-02-26T13:47:34;3.67;;;2.30;;
79229;SDS011;68663;49.122;17.544;2024-02-26T13:49:59;3.22;;;2.53;;
79229;SDS011;68663;49.122;17.544;2024-02-26T13:52:25;5.47;;;2.58;;
79229;SDS011;68663;49.122;17.544;2024-02-26T13:54:51;7.40;;;2.42;;
79229;SDS011;68663;49.122;17.544;2024-02-26T13:57:17;4.20;;;2.83;;
79229;SDS011;68663;49.122;17.544;2024-02-26T13:59:43;5.00;;;2.80;;
79229;SDS011;68663;49.122;17.544;2024-02-26T14:02:09;3.50;;;2.40;;
79229;SDS011;68663;49.122;17.544;2024-02-26T14:04:35;2.85;;;2.40;;
79229;SDS011;68663;49.122;17.544;2024-02-26T14:07:01;3.97;;;2.78;;
79229;SDS011;68663;49.122;17.544;2024-02-26T14:09:28;4.18;;;2.70;;
79229;SDS011;68663;49.122;17.544;2024-02-26T14:11:53;5.63;;;2.85;;
79229;SDS011;68663;49.122;17.544;2024-02-26T14:14:19;4.35;;;2.22;;
79229;SDS011;68663;49.122;17.544;2024-02-26T14:16:44;10.33;;;2.60;;
79229;SDS011;68663;49.122;17.544;2024-02-26T14:19:09;5.50;;;2.00;;
79229;SDS011;68663;49.122;17.544;2024-02-26T14:21:35;4.43;;;2.83;;
79229;SDS011;68663;49.122;17.544;2024-02-26T14:24:00;6.13;;;2.70;;
79229;SDS011;68663;49.122;17.544;2024-02-26T14:26:26;3.30;;;2.07;;
79229;SDS011;68663;49.122;17.544;2024-02-26T14:28:51;4.55;;;2.33;;
79229;SDS011;68663;49.122;17.544;2024-02-26T14:31:17;5.03;;;2.33;;
79229;SDS011;68663;49.122;17.544;2024-02-26T14:33:42;7.28;;;2.85;;
79229;SDS011;68663;49.122;17.544;2024-02-26T14:36:08;3.85;;;2.55;;
79229;SDS011;68663;49.122;17.544;2024-02-26T14:38:34;3.13;;;2.40;;
79229;SDS011;68663;49.122;17.544;2024-02-26T14:40:59;5.47;;;2.65;;
79229;SDS011;68663;49.122;17.544;2024-02-26T14:43:25;5.00;;;2.42;;
79229;SDS011;68663;49.122;17.544;2024-02-26T14:45:50;3.43;;;2.43;;